Time;durP1;ratioP1;P1;durP2;ratioP2;P2;SDS_P1;SDS_P2;PMS_P1;PMS_P2;Temp;Humidity;BMP_temperature;BMP_pressure;BME280_temperature;BME280_humidity;BME280_pressure;Samples;Min_cycle;Max_cycle;Signal;HPM_P1;HPM_P2
2021/08/31 00:00:54;;;;;;;5.78;5.22;;;20.70;68.60;;;;;;5095365;28;20196;-59
2021/08/31 00:03:20;;;;;;;5.32;4.82;;;20.70;68.60;;;;;;5094072;28;20245;-59
2021/08/31 00:05:46;;;;;;;5.40;4.90;;;20.70;68.60;;;;;;5095061;28;20620;-59
2021/08/31 00:08:11;;;;;;;5.03;4.45;;;20.60;68.60;;;;;;5095297;28;20185;-59
2021/08/31 00:10:37;;;;;;;4.65;4.25;;;20.60;68.60;;;;;;5094233;28;20169;-59
2021/08/31 00:13:03;;;;;;;5.32;4.75;;;20.60;68.60;;;;;;5094959;28;20174;-59
2021/08/31 00:15:28;;;;;;;4.65;4.22;;;20.60;68.60;;;;;;5094638;28;20636;-60
2021/08/31 00:17:56;;;;;;;5.93;4.72;;;20.60;68.50;;;;;;5094179;28;20527;-59
2021/08/31 00:20:21;;;;;;;4.85;4.35;;;20.70;68.60;;;;;;5094285;28;20271;-59
2021/08/31 00:22:47;;;;;;;6.00;4.75;;;20.60;68.60;;;;;;5094804;28;20210;-59
2021/08/31 00:25:12;;;;;;;4.93;4.45;;;20.60;68.60;;;;;;5094087;28;20170;-59
2021/08/31 00:27:38;;;;;;;4.80;4.40;;;20.60;68.60;;;;;;5094316;28;20701;-59
2021/08/31 00:30:06;;;;;;;5.22;4.50;;;20.60;68.60;;;;;;5094318;28;20170;-59
2021/08/31 00:32:32;;;;;;;4.93;4.53;;;20.60;68.60;;;;;;5094307;28;20185;-59
2021/08/31 00:34:57;;;;;;;4.78;4.30;;;20.60;68.60;;;;;;5094398;28;20174;-59
2021/08/31 00:37:23;;;;;;;5.25;4.82;;;20.60;68.60;;;;;;5093408;28;20969;-59
2021/08/31 00:39:48;;;;;;;5.20;4.70;;;20.60;68.60;;;;;;5094727;28;20196;-59
2021/08/31 00:42:14;;;;;;;5.07;4.57;;;20.60;68.60;;;;;;5094488;28;20210;-59
2021/08/31 00:44:39;;;;;;;5.18;4.68;;;20.60;68.60;;;;;;5093445;28;20181;-59
2021/08/31 00:47:08;;;;;;;5.30;4.80;;;20.60;68.60;;;;;;5094476;28;20166;-59
2021/08/31 00:49:34;;;;;;;5.15;4.70;;;20.60;68.60;;;;;;5093948;28;20648;-60
2021/08/31 00:52:00;;;;;;;4.72;4.32;;;20.60;68.60;;;;;;5093589;28;20181;-59
2021/08/31 00:54:26;;;;;;;4.97;4.57;;;20.60;68.60;;;;;;5094105;28;20219;-60
2021/08/31 00:56:51;;;;;;;4.93;4.50;;;20.60;68.70;;;;;;5110071;28;20256;-59
2021/08/31 00:59:18;;;;;;;5.35;4.85;;;20.60;68.60;;;;;;5093517;28;20322;-60
2021/08/31 01:01:47;;;;;;;5.40;4.90;;;20.60;68.60;;;;;;5093847;28;20189;-58
2021/08/31 01:04:13;;;;;;;5.13;4.72;;;20.60;68.60;;;;;;5094062;28;20181;-59
2021/08/31 01:06:39;;;;;;;5.15;4.65;;;20.60;68.70;;;;;;5093168;28;20174;-58
2021/08/31 01:09:05;;;;;;;5.20;4.80;;;20.60;68.70;;;;;;5093576;28;20174;-59
2021/08/31 01:11:30;;;;;;;5.45;4.88;;;20.60;68.70;;;;;;5093645;28;20185;-59
2021/08/31 01:13:56;;;;;;;5.32;4.82;;;20.60;68.70;;;;;;5093071;28;20178;-59
2021/08/31 01:16:21;;;;;;;5.03;4.63;;;20.60;68.70;;;;;;5109188;28;20166;-59
2021/08/31 01:18:47;;;;;;;5.63;5.13;;;20.60;68.70;;;;;;5109281;28;20170;-59
2021/08/31 01:21:12;;;;;;;5.05;4.63;;;20.60;68.70;;;;;;5092714;28;20229;-59
2021/08/31 01:23:38;;;;;;;4.80;4.40;;;20.60;68.70;;;;;;5093346;28;20201;-59
2021/08/31 01:26:04;;;;;;;5.05;4.65;;;20.60;68.70;;;;;;5093599;28;20174;-59
2021/08/31 01:28:31;;;;;;;5.47;4.97;;;20.60;68.70;;;;;;5092518;28;20185;-59
2021/08/31 01:31:00;;;;;;;5.25;4.75;;;20.60;68.70;;;;;;5093480;28;20174;-59
2021/08/31 01:33:27;;;;;;;5.05;4.55;;;20.50;68.60;;;;;;5092235;28;20192;-59
2021/08/31 01:35:53;;;;;;;4.90;4.50;;;20.60;68.70;;;;;;5093771;28;20579;-59
2021/08/31 01:38:19;;;;;;;5.22;4.82;;;20.50;68.60;;;;;;5093648;28;20258;-59
2021/08/31 01:40:44;;;;;;;5.35;4.95;;;20.50;68.70;;;;;;5092563;28;20195;-59
2021/08/31 01:43:10;;;;;;;4.40;4.00;;;20.60;69.60;;;;;;5093386;28;20288;-59
2021/08/31 01:45:45;;;;;;;5.32;4.88;;;20.60;68.70;;;;;;5092973;28;20226;-59
2021/08/31 01:48:10;;;;;;;5.25;4.78;;;20.50;68.60;;;;;;5092720;28;20177;-59
2021/08/31 01:50:36;;;;;;;5.32;4.55;;;20.50;68.70;;;;;;5092838;28;20180;-59
2021/08/31 01:53:01;;;;;;;5.72;5.20;;;20.50;68.60;;;;;;5093255;28;20201;-59
2021/08/31 01:55:27;;;;;;;5.93;4.80;;;20.60;68.80;;;;;;5092194;28;20551;-59
2021/08/31 01:57:52;;;;;;;4.97;4.55;;;20.50;68.60;;;;;;5092942;28;20169;-59
2021/08/31 02:00:18;;;;;;;5.35;4.85;;;20.50;68.70;;;;;;5092820;28;20644;-59
2021/08/31 02:02:43;;;;;;;5.35;4.85;;;20.50;68.70;;;;;;5092058;28;20221;-59
2021/08/31 02:05:09;;;;;;;5.35;4.95;;;20.50;68.70;;;;;;5093065;28;20190;-59
2021/08/31 02:07:38;;;;;;;5.15;4.75;;;20.50;68.70;;;;;;5092711;28;20170;-59
2021/08/31 02:10:05;;;;;;;5.35;4.85;;;20.50;68.70;;;;;;5092252;28;20169;-59
2021/08/31 02:12:30;;;;;;;4.85;4.45;;;20.50;68.70;;;;;;5092504;28;20552;-59
2021/08/31 02:14:56;;;;;;;5.70;5.20;;;20.50;68.70;;;;;;5092698;28;20640;-59
2021/08/31 02:17:21;;;;;;;5.70;4.90;;;20.50;68.70;;;;;;5091602;28;20177;-58
2021/08/31 02:19:47;;;;;;;5.15;4.65;;;20.50;68.70;;;;;;5091879;28;20677;-59
2021/08/31 02:22:12;;;;;;;5.35;4.90;;;20.50;68.70;;;;;;5092716;28;20197;-59
2021/08/31 02:24:38;;;;;;;5.40;4.90;;;20.50;68.70;;;;;;5091583;28;20208;-59
2021/08/31 02:27:03;;;;;;;5.03;4.63;;;20.50;68.70;;;;;;5092601;28;20479;-59
2021/08/31 02:29:29;;;;;;;5.55;5.05;;;20.50;68.80;;;;;;5092236;28;20178;-59
2021/08/31 02:31:54;;;;;;;4.45;4.05;;;20.50;68.70;;;;;;5091746;28;20170;-59
2021/08/31 02:34:20;;;;;;;5.00;4.60;;;20.50;68.70;;;;;;5092302;28;20542;-60
2021/08/31 02:36:45;;;;;;;5.00;4.60;;;20.50;68.70;;;;;;5091870;28;20215;-60
2021/08/31 02:39:11;;;;;;;4.95;4.47;;;20.50;68.80;;;;;;5092611;28;20264;-60
2021/08/31 02:41:36;;;;;;;5.25;4.75;;;20.50;68.80;;;;;;5092208;28;20166;-61
2021/08/31 02:44:02;;;;;;;4.80;4.40;;;20.50;68.80;;;;;;5091553;28;20206;-61
2021/08/31 02:46:27;;;;;;;5.43;4.93;;;20.50;68.80;;;;;;5091979;28;20685;-60
2021/08/31 02:48:53;;;;;;;5.88;4.95;;;20.50;68.80;;;;;;5092521;28;20173;-60
2021/08/31 02:51:18;;;;;;;4.70;4.30;;;20.50;68.80;;;;;;5091839;28;20173;-61
2021/08/31 02:53:44;;;;;;;5.03;4.45;;;20.50;68.80;;;;;;5092088;28;20178;-60
2021/08/31 02:56:09;;;;;;;4.57;4.18;;;20.50;68.70;;;;;;5092403;28;20651;-60
2021/08/31 02:58:35;;;;;;;5.72;5.13;;;20.50;68.80;;;;;;5091237;28;20261;-60
2021/08/31 03:01:29;;;;;;;4.55;4.25;;;20.50;68.80;;;;;;5092127;28;20176;-61
2021/08/31 03:03:55;;;;;;;4.80;4.40;;;20.50;68.80;;;;;;5092452;28;20655;-60
2021/08/31 03:06:20;;;;;;;4.47;4.07;;;20.40;68.80;;;;;;5091344;28;20648;-60
2021/08/31 03:08:46;;;;;;;5.55;5.05;;;20.40;68.80;;;;;;5092317;28;20173;-60
2021/08/31 03:11:11;;;;;;;4.93;4.53;;;20.50;68.80;;;;;;5092057;28;20319;-60
2021/08/31 03:13:37;;;;;;;5.07;4.68;;;20.40;68.70;;;;;;5091004;28;20178;-60
2021/08/31 03:16:02;;;;;;;5.20;4.70;;;20.40;68.80;;;;;;5092329;28;20170;-60
2021/08/31 03:18:28;;;;;;;5.80;5.20;;;20.40;68.80;;;;;;5091985;28;20185;-60
2021/08/31 03:20:53;;;;;;;5.28;4.78;;;20.40;68.80;;;;;;5091262;28;20789;-60
2021/08/31 03:23:19;;;;;;;5.45;4.97;;;20.40;68.80;;;;;;5092030;28;20205;-60
2021/08/31 03:25:44;;;;;;;5.57;5.07;;;20.40;68.80;;;;;;5091734;28;20174;-59
2021/08/31 03:28:10;;;;;;;4.43;4.07;;;20.40;68.80;;;;;;5091316;28;20174;-60
2021/08/31 03:30:35;;;;;;;5.35;4.85;;;20.40;68.80;;;;;;5091804;28;20178;-60
2021/08/31 03:33:01;;;;;;;4.95;4.50;;;20.40;68.80;;;;;;5094772;28;20170;-60
2021/08/31 03:35:27;;;;;;;5.15;4.65;;;20.40;68.80;;;;;;5095432;28;20178;-60
2021/08/31 03:37:52;;;;;;;4.65;4.25;;;20.40;68.80;;;;;;5095785;28;20170;-60
2021/08/31 03:40:17;;;;;;;5.25;4.75;;;20.40;68.80;;;;;;5094904;28;20169;-60
2021/08/31 03:42:43;;;;;;;5.25;4.85;;;20.40;68.80;;;;;;5095139;28;20284;-60
2021/08/31 03:45:09;;;;;;;5.07;4.63;;;20.40;68.80;;;;;;5095752;28;20169;-60
2021/08/31 03:47:35;;;;;;;4.82;4.40;;;20.40;68.90;;;;;;5094740;28;20174;-60
2021/08/31 03:50:01;;;;;;;4.97;4.57;;;20.40;68.80;;;;;;5095518;28;20172;-60
2021/08/31 03:52:26;;;;;;;4.90;4.50;;;20.40;68.80;;;;;;5095133;28;20192;-60
2021/08/31 03:54:52;;;;;;;4.85;4.45;;;20.40;68.80;;;;;;5094681;28;20617;-60
2021/08/31 03:57:17;;;;;;;4.50;4.10;;;20.40;68.80;;;;;;5095242;28;20188;-60
2021/08/31 03:59:43;;;;;;;5.53;4.90;;;20.40;68.80;;;;;;5095061;28;20166;-60
2021/08/31 04:02:09;;;;;;;4.72;4.32;;;20.40;68.80;;;;;;5094561;28;20256;-60
2021/08/31 04:04:34;;;;;;;4.30;4.00;;;20.40;68.80;;;;;;5094877;28;20189;-60
2021/08/31 04:07:00;;;;;;;5.03;4.63;;;20.40;68.80;;;;;;5095255;28;20578;-60
2021/08/31 04:09:25;;;;;;;4.63;4.22;;;20.40;68.80;;;;;;5094087;28;20565;-60
2021/08/31 04:11:51;;;;;;;5.47;4.70;;;20.40;68.90;;;;;;5094994;28;20659;-59
2021/08/31 04:14:17;;;;;;;5.07;4.60;;;20.40;68.80;;;;;;5095214;28;20223;-60
2021/08/31 04:16:42;;;;;;;4.32;3.92;;;20.40;68.80;;;;;;5093899;28;20223;-60
2021/08/31 04:19:08;;;;;;;4.55;4.15;;;20.40;68.80;;;;;;5094718;28;20174;-61
2021/08/31 04:21:33;;;;;;;4.95;4.45;;;20.40;68.90;;;;;;5094637;28;20178;-60
2021/08/31 04:23:59;;;;;;;4.65;4.25;;;20.40;69.10;;;;;;5094159;28;20201;-61
2021/08/31 04:26:24;;;;;;;4.68;4.28;;;20.40;68.80;;;;;;5094573;28;20169;-60
2021/08/31 04:28:50;;;;;;;4.47;4.15;;;20.40;68.80;;;;;;5095034;28;20620;-60
2021/08/31 04:31:15;;;;;;;5.35;4.90;;;20.40;68.80;;;;;;5094253;28;20206;-60
2021/08/31 04:33:41;;;;;;;5.45;4.95;;;20.40;68.90;;;;;;5094568;28;20210;-60
2021/08/31 04:36:06;;;;;;;5.18;4.20;;;20.40;68.90;;;;;;5094835;28;20373;-60
2021/08/31 04:38:32;;;;;;;4.68;4.20;;;20.40;68.90;;;;;;5093629;28;20165;-60
2021/08/31 04:40:57;;;;;;;4.88;4.38;;;20.40;68.90;;;;;;5094457;28;20178;-60
2021/08/31 04:43:23;;;;;;;4.53;3.92;;;20.40;68.80;;;;;;5092853;28;20217;-60
2021/08/31 04:45:48;;;;;;;4.47;4.07;;;20.40;68.80;;;;;;5094581;28;20220;-60
2021/08/31 04:48:14;;;;;;;4.47;4.13;;;20.40;68.80;;;;;;5094399;28;20174;-60
2021/08/31 04:50:39;;;;;;;5.15;4.35;;;20.40;68.90;;;;;;5093280;28;20546;-60
2021/08/31 04:53:05;;;;;;;4.72;4.25;;;20.40;68.80;;;;;;5094416;28;20174;-60
2021/08/31 04:55:30;;;;;;;4.75;4.30;;;20.40;68.90;;;;;;5093890;28;20181;-60
2021/08/31 04:57:56;;;;;;;4.40;4.00;;;20.40;68.90;;;;;;5093778;28;20173;-60
2021/08/31 05:00:21;;;;;;;4.10;3.80;;;20.40;68.90;;;;;;5093842;28;20218;-60
2021/08/31 05:02:49;;;;;;;3.78;3.47;;;20.40;68.80;;;;;;5094264;28;20801;-60
2021/08/31 05:05:14;;;;;;;4.90;4.50;;;20.40;68.90;;;;;;5093593;28;20174;-60
2021/08/31 05:07:40;;;;;;;4.70;4.30;;;20.40;68.90;;;;;;5093725;28;20668;-61
2021/08/31 05:10:07;;;;;;;4.57;4.18;;;20.40;68.90;;;;;;5093917;28;20172;-60
2021/08/31 05:12:32;;;;;;;4.13;3.83;;;20.30;68.80;;;;;;5093109;28;20185;-60
2021/08/31 05:14:58;;;;;;;4.38;3.97;;;20.40;68.80;;;;;;5093888;28;20192;-60
2021/08/31 05:17:23;;;;;;;4.75;3.75;;;20.40;68.80;;;;;;5093586;28;20177;-60
2021/08/31 05:19:49;;;;;;;4.38;3.97;;;20.40;68.90;;;;;;5092991;28;20221;-60
2021/08/31 05:22:14;;;;;;;4.55;4.15;;;20.40;69.70;;;;;;5093753;28;20190;-60
2021/08/31 05:24:40;;;;;;;4.75;4.30;;;20.40;68.90;;;;;;5093338;28;20208;-60
2021/08/31 05:27:06;;;;;;;4.28;3.88;;;20.40;68.90;;;;;;5093182;28;20636;-60
2021/08/31 05:29:32;;;;;;;5.05;4.57;;;20.40;68.80;;;;;;5093517;28;20645;-60
2021/08/31 05:31:57;;;;;;;4.20;3.80;;;20.40;68.90;;;;;;5093481;28;20177;-60
2021/08/31 05:34:23;;;;;;;4.07;3.78;;;20.40;68.90;;;;;;5092569;28;20632;-60
2021/08/31 05:36:48;;;;;;;4.18;3.78;;;20.40;68.90;;;;;;5093435;28;20215;-60
2021/08/31 05:39:14;;;;;;;4.78;4.22;;;20.40;68.90;;;;;;5093241;28;20173;-60
2021/08/31 05:41:39;;;;;;;5.03;3.88;;;20.40;68.90;;;;;;5092477;28;20214;-60
2021/08/31 05:44:05;;;;;;;4.22;3.83;;;20.30;68.90;;;;;;5093136;28;20202;-59
2021/08/31 05:46:31;;;;;;;3.97;3.67;;;20.40;68.90;;;;;;5093155;28;20170;-59
2021/08/31 05:48:57;;;;;;;4.72;4.32;;;20.40;68.90;;;;;;5092694;28;20247;-59
2021/08/31 05:51:23;;;;;;;4.25;3.85;;;20.40;68.90;;;;;;5092778;28;20611;-59
2021/08/31 05:53:48;;;;;;;4.20;3.85;;;20.40;68.90;;;;;;5092281;28;20177;-59
2021/08/31 05:56:14;;;;;;;4.28;3.92;;;20.40;68.90;;;;;;5093198;28;20632;-59
2021/08/31 05:58:39;;;;;;;5.38;4.20;;;20.40;68.90;;;;;;5092878;28;20216;-59
2021/08/31 06:01:05;;;;;;;4.47;4.05;;;20.40;68.90;;;;;;5092193;28;20699;-59
2021/08/31 06:03:30;;;;;;;4.85;4.05;;;20.40;68.90;;;;;;5092540;28;20210;-59
2021/08/31 06:05:56;;;;;;;4.18;3.78;;;20.40;68.90;;;;;;5092916;28;20230;-59
2021/08/31 06:08:21;;;;;;;4.03;3.70;;;20.40;68.80;;;;;;5091762;28;20543;-59
2021/08/31 06:10:47;;;;;;;4.22;3.83;;;20.40;68.90;;;;;;5093010;28;20165;-59
2021/08/31 06:13:12;;;;;;;4.80;4.00;;;20.40;68.80;;;;;;5092995;28;20180;-60
2021/08/31 06:15:38;;;;;;;4.63;4.22;;;20.40;68.80;;;;;;5091860;28;20249;-59
2021/08/31 06:18:03;;;;;;;4.45;4.05;;;20.40;68.80;;;;;;5092752;28;20178;-59
2021/08/31 06:20:29;;;;;;;4.40;3.92;;;20.40;68.80;;;;;;5092215;28;20214;-59
2021/08/31 06:22:54;;;;;;;4.45;4.05;;;20.40;68.70;;;;;;5091791;28;20540;-59
2021/08/31 06:25:21;;;;;;;4.13;3.72;;;20.40;68.70;;;;;;5092516;28;20228;-59
2021/08/31 06:27:46;;;;;;;4.28;3.95;;;20.40;68.80;;;;;;5092803;28;20632;-59
2021/08/31 06:30:12;;;;;;;6.15;4.32;;;20.50;68.80;;;;;;5091757;28;20177;-59
2021/08/31 06:32:37;;;;;;;4.10;3.75;;;20.40;69.20;;;;;;5092380;28;20647;-62
2021/08/31 06:35:03;;;;;;;4.70;4.30;;;20.40;69.00;;;;;;5091428;28;20222;-61
2021/08/31 06:37:29;;;;;;;4.35;3.95;;;20.50;69.00;;;;;;5090942;28;20170;-60
2021/08/31 06:39:54;;;;;;;5.70;4.03;;;20.50;68.90;;;;;;5091963;28;20169;-62
2021/08/31 06:42:20;;;;;;;3.47;3.17;;;20.50;68.80;;;;;;5091616;28;20189;-60
2021/08/31 06:44:45;;;;;;;4.28;3.58;;;20.50;68.80;;;;;;5091566;28;20181;-61
2021/08/31 06:47:11;;;;;;;4.15;3.67;;;20.50;68.80;;;;;;5092449;28;20169;-61
2021/08/31 06:49:36;;;;;;;4.03;3.63;;;20.60;69.10;;;;;;5091908;28;20274;-61
2021/08/31 06:52:03;;;;;;;4.60;4.15;;;20.60;69.00;;;;;;5091653;28;20169;-61
2021/08/31 06:54:30;;;;;;;5.20;4.20;;;20.60;69.00;;;;;;5091948;28;20192;-60
2021/08/31 06:56:56;;;;;;;3.70;3.35;;;20.60;68.80;;;;;;5091586;28;20174;-60
2021/08/31 06:59:21;;;;;;;5.15;4.22;;;20.60;68.90;;;;;;5092018;28;20173;-60
2021/08/31 07:01:47;;;;;;;6.10;4.25;;;20.60;68.90;;;;;;5092293;28;20177;-60
2021/08/31 07:04:12;;;;;;;4.70;3.90;;;20.60;69.10;;;;;;5091399;28;20259;-60
2021/08/31 07:06:38;;;;;;;4.20;3.78;;;20.60;69.60;;;;;;5093145;28;20161;-60
2021/08/31 07:09:05;;;;;;;4.25;3.70;;;20.60;69.20;;;;;;5096091;28;20240;-60
2021/08/31 07:11:30;;;;;;;5.03;3.88;;;20.60;69.20;;;;;;5095298;28;20195;-60
2021/08/31 07:13:56;;;;;;;7.15;4.30;;;20.60;69.10;;;;;;5096295;28;20635;-61
2021/08/31 07:16:21;;;;;;;5.85;4.43;;;20.60;69.20;;;;;;5095610;28;20554;-62
2021/08/31 07:18:47;;;;;;;6.75;4.75;;;20.60;69.30;;;;;;5095395;28;20180;-61
2021/08/31 07:21:12;;;;;;;4.50;3.65;;;20.60;69.20;;;;;;5095825;28;20225;-60
2021/08/31 07:23:38;;;;;;;4.50;3.92;;;20.60;69.00;;;;;;5095791;28;20205;-60
2021/08/31 07:26:03;;;;;;;4.53;4.10;;;20.60;69.10;;;;;;5095245;28;20587;-60
2021/08/31 07:28:28;;;;;;;5.78;4.57;;;20.60;69.10;;;;;;5095810;28;20176;-60
2021/08/31 07:30:54;;;;;;;6.05;4.25;;;20.60;69.20;;;;;;5096102;28;20166;-61
2021/08/31 07:33:19;;;;;;;6.20;4.65;;;20.60;69.30;;;;;;5093714;28;20170;-62
2021/08/31 07:35:46;;;;;;;5.72;4.28;;;20.60;69.30;;;;;;5095576;28;20535;-62
2021/08/31 07:38:12;;;;;;;4.22;3.83;;;20.60;69.30;;;;;;5095707;28;20559;-61
2021/08/31 07:40:38;;;;;;;3.92;3.58;;;20.90;69.60;;;;;;5094725;28;20277;-61
2021/08/31 07:43:03;;;;;;;6.32;4.75;;;20.60;69.40;;;;;;5095459;28;20683;-60
2021/08/31 07:45:29;;;;;;;5.72;4.13;;;20.60;69.40;;;;;;5095388;28;20194;-61
2021/08/31 07:47:54;;;;;;;4.22;3.83;;;20.60;69.40;;;;;;5094710;28;20620;-61
2021/08/31 07:50:20;;;;;;;6.22;4.25;;;20.60;69.40;;;;;;5095132;28;20178;-61
2021/08/31 07:52:47;;;;;;;6.75;4.22;;;20.60;70.30;;;;;;5095449;28;20193;-60
2021/08/31 07:55:12;;;;;;;4.20;3.80;;;20.60;69.40;;;;;;5094858;28;20174;-61
2021/08/31 07:57:38;;;;;;;5.40;4.18;;;20.60;69.40;;;;;;5094926;28;20177;-61
2021/08/31 08:00:05;;;;;;;5.30;3.88;;;20.60;69.40;;;;;;5095319;28;20181;-61
2021/08/31 08:02:33;;;;;;;4.35;3.95;;;20.60;69.40;;;;;;5093980;28;20209;-61
2021/08/31 08:04:59;;;;;;;5.10;4.05;;;20.60;69.40;;;;;;5095112;28;20249;-60
2021/08/31 08:07:26;;;;;;;5.25;4.25;;;20.60;69.40;;;;;;5094187;28;20231;-60
2021/08/31 08:09:52;;;;;;;4.15;3.72;;;20.60;69.30;;;;;;5095202;28;20201;-61
2021/08/31 08:12:17;;;;;;;4.72;3.92;;;20.60;69.30;;;;;;5095120;28;20246;-62
2021/08/31 08:14:43;;;;;;;5.20;4.18;;;20.60;69.20;;;;;;5094056;28;20170;-62
2021/08/31 08:17:08;;;;;;;3.78;3.47;;;20.60;69.20;;;;;;5094622;28;20227;-61
2021/08/31 08:19:34;;;;;;;6.28;4.40;;;20.60;69.20;;;;;;5093248;28;20687;-62
2021/08/31 08:21:59;;;;;;;4.35;3.70;;;20.70;69.20;;;;;;5094107;28;20177;-62
2021/08/31 08:24:25;;;;;;;4.00;3.67;;;20.70;69.00;;;;;;5094716;28;20186;-62
2021/08/31 08:26:52;;;;;;;4.35;3.58;;;20.70;69.00;;;;;;5094683;28;20166;-62
2021/08/31 08:29:17;;;;;;;6.00;3.70;;;20.80;68.80;;;;;;5094069;28;20539;-62
2021/08/31 08:31:45;;;;;;;5.45;3.85;;;20.90;68.60;;;;;;5094529;28;20184;-62
2021/08/31 08:34:11;;;;;;;5.28;4.00;;;20.90;68.50;;;;;;5094597;28;20178;-62
2021/08/31 08:36:36;;;;;;;5.75;4.28;;;20.90;68.50;;;;;;5093888;28;20182;-62
2021/08/31 08:39:02;;;;;;;5.82;4.10;;;20.90;68.50;;;;;;5094775;28;20177;-61
2021/08/31 08:41:28;;;;;;;4.13;3.80;;;21.00;68.50;;;;;;5094100;28;20182;-62
2021/08/31 08:43:58;;;;;;;4.55;3.83;;;20.90;68.50;;;;;;5093726;28;20248;-62
2021/08/31 08:46:24;;;;;;;4.50;4.03;;;21.00;68.50;;;;;;5094261;28;20589;-62
2021/08/31 08:48:49;;;;;;;5.20;4.05;;;21.00;68.30;;;;;;5093125;28;20173;-62
2021/08/31 08:51:15;;;;;;;4.60;4.07;;;21.10;68.40;;;;;;5093855;28;20193;-62
2021/08/31 08:53:40;;;;;;;5.50;4.05;;;21.00;68.50;;;;;;5094064;28;20185;-63
2021/08/31 08:56:06;;;;;;;4.38;3.97;;;21.10;68.50;;;;;;5094246;28;20264;-62
2021/08/31 08:58:32;;;;;;;4.20;3.80;;;21.10;68.40;;;;;;5093314;28;20211;-62
2021/08/31 09:01:04;;;;;;;4.53;3.50;;;21.00;68.60;;;;;;5094016;28;20613;-62
2021/08/31 09:03:32;;;;;;;4.40;3.80;;;21.00;68.60;;;;;;5092951;28;20296;-63
2021/08/31 09:06:09;;;;;;;5.85;4.00;;;21.00;69.50;;;;;;5094164;28;20174;-62
2021/08/31 09:08:34;;;;;;;4.82;3.88;;;21.10;68.60;;;;;;5093919;28;20173;-63
2021/08/31 09:11:17;;;;;;;4.72;4.28;;;21.10;68.40;;;;;;5093465;28;20231;-62
2021/08/31 09:13:42;;;;;;;4.13;3.72;;;21.20;68.40;;;;;;5093649;28;20198;-62
2021/08/31 09:16:23;;;;;;;5.38;3.80;;;21.20;68.20;;;;;;5093989;28;20170;-62
2021/08/31 09:18:53;;;;;;;5.80;3.85;;;21.20;68.40;;;;;;5093471;28;20207;-62
2021/08/31 09:21:26;;;;;;;3.90;3.50;;;21.20;68.30;;;;;;5093609;28;20221;-61
2021/08/31 09:23:53;;;;;;;4.45;3.20;;;21.20;68.30;;;;;;5093646;28;20676;-61
2021/08/31 09:26:18;;;;;;;4.15;3.80;;;21.20;68.40;;;;;;5092803;28;20233;-61
2021/08/31 09:28:44;;;;;;;4.28;3.88;;;21.20;68.30;;;;;;5091791;28;20177;-62
2021/08/31 09:31:12;;;;;;;4.40;3.83;;;21.30;68.20;;;;;;5093669;28;20265;-62
2021/08/31 09:33:42;;;;;;;5.45;3.60;;;21.40;68.20;;;;;;5092638;28;20181;-63
2021/08/31 09:36:17;;;;;;;4.43;3.40;;;21.30;68.30;;;;;;5093555;28;20178;-62
2021/08/31 09:38:53;;;;;;;4.97;3.65;;;21.30;68.30;;;;;;5092093;28;20177;-63
2021/08/31 09:41:28;;;;;;;5.43;3.40;;;21.30;68.30;;;;;;5091042;28;20260;-61
2021/08/31 09:43:55;;;;;;;4.00;3.58;;;21.30;68.30;;;;;;5093432;28;20308;-63
2021/08/31 09:46:20;;;;;;;4.60;3.83;;;21.40;68.10;;;;;;5091680;28;20162;-63
2021/08/31 09:48:46;;;;;;;8.05;4.15;;;21.40;68.00;;;;;;5092954;28;20172;-62
2021/08/31 09:51:12;;;;;;;5.15;3.95;;;21.40;68.20;;;;;;5092091;28;20551;-63
2021/08/31 09:53:38;;;;;;;4.63;4.03;;;21.40;68.30;;;;;;5091438;28;20557;-62
2021/08/31 09:56:08;;;;;;;4.50;3.60;;;21.40;68.30;;;;;;5093015;28;20652;-62
2021/08/31 09:58:35;;;;;;;4.53;3.50;;;21.50;68.10;;;;;;5091829;28;20204;-63
2021/08/31 10:01:00;;;;;;;5.40;3.58;;;21.60;68.10;;;;;;5092349;28;20174;-62
2021/08/31 10:03:26;;;;;;;4.13;3.72;;;21.60;68.10;;;;;;5092554;28;20202;-63
2021/08/31 10:05:53;;;;;;;3.97;3.40;;;21.60;68.00;;;;;;5092655;28;20197;-62
2021/08/31 10:08:19;;;;;;;3.45;3.20;;;21.50;68.10;;;;;;5092172;28;20205;-61
2021/08/31 10:10:52;;;;;;;4.20;3.65;;;21.50;68.20;;;;;;5092725;28;20205;-62
2021/08/31 10:13:19;;;;;;;3.92;3.55;;;21.60;68.10;;;;;;5092990;28;20415;-62
2021/08/31 10:15:52;;;;;;;3.63;3.33;;;21.70;67.90;;;;;;5092032;28;20178;-62
2021/08/31 10:18:19;;;;;;;4.55;3.13;;;21.70;67.80;;;;;;5092564;28;20716;-62
2021/08/31 10:20:47;;;;;;;3.97;3.50;;;21.60;67.90;;;;;;5092479;28;20247;-62
2021/08/31 10:23:14;;;;;;;4.95;3.70;;;21.60;68.10;;;;;;5091988;28;20565;-62
2021/08/31 10:25:40;;;;;;;4.35;3.60;;;21.50;68.30;;;;;;5091143;28;20178;-61
2021/08/31 10:28:25;;;;;;;3.92;3.53;;;21.40;68.50;;;;;;5091925;28;20178;-62
2021/08/31 10:30:51;;;;;;;4.30;3.40;;;21.50;68.50;;;;;;5092564;28;20258;-62
2021/08/31 10:33:28;;;;;;;3.75;3.13;;;21.60;68.50;;;;;;5092432;28;20524;-62
2021/08/31 10:35:53;;;;;;;4.35;3.53;;;21.50;68.20;;;;;;5091953;28;20174;-62
2021/08/31 10:38:48;;;;;;;4.65;3.88;;;21.50;68.40;;;;;;5092489;28;20184;-64
2021/08/31 10:41:31;;;;;;;4.05;3.65;;;21.40;68.50;;;;;;5091605;28;20185;-60
2021/08/31 10:43:57;;;;;;;4.65;3.83;;;21.60;68.60;;;;;;5091714;28;20244;-60
2021/08/31 10:46:23;;;;;;;3.95;3.33;;;21.70;68.30;;;;;;5092133;28;20197;-61
2021/08/31 10:49:03;;;;;;;6.22;4.07;;;21.70;68.50;;;;;;5092226;28;20219;-60
2021/08/31 10:51:29;;;;;;;4.18;3.47;;;21.70;68.30;;;;;;5091937;28;20166;-60
2021/08/31 10:53:55;;;;;;;4.63;3.28;;;21.80;68.30;;;;;;5092211;28;20165;-60
2021/08/31 10:56:24;;;;;;;4.18;3.33;;;21.80;68.40;;;;;;5089481;28;20285;-61
2021/08/31 10:58:53;;;;;;;3.45;3.15;;;21.70;68.60;;;;;;5092342;28;20600;-60
2021/08/31 11:01:22;;;;;;;3.60;3.30;;;21.70;68.80;;;;;;5092268;28;20626;-61
2021/08/31 11:03:52;;;;;;;3.65;3.35;;;21.80;68.60;;;;;;5091623;28;20260;-60
2021/08/31 11:06:23;;;;;;;4.45;4.05;;;21.80;68.30;;;;;;5092005;28;20197;-60
2021/08/31 11:09:11;;;;;;;5.18;3.70;;;21.90;68.10;;;;;;5092282;28;20223;-60
2021/08/31 11:11:38;;;;;;;4.15;2.95;;;22.00;68.10;;;;;;5091214;28;20219;-60
2021/08/31 11:14:03;;;;;;;5.32;3.75;;;21.90;68.20;;;;;;5092173;28;20197;-60
2021/08/31 11:16:31;;;;;;;4.10;3.75;;;21.80;68.30;;;;;;5091800;28;20194;-62
2021/08/31 11:18:56;;;;;;;7.45;3.67;;;21.90;68.50;;;;;;5091109;28;20227;-60
2021/08/31 11:21:22;;;;;;;3.75;3.20;;;21.90;68.30;;;;;;5090607;28;20618;-61
2021/08/31 11:23:48;;;;;;;4.20;3.38;;;22.00;68.20;;;;;;5091210;28;20205;-60
2021/08/31 11:26:21;;;;;;;5.97;2.95;;;22.00;68.00;;;;;;5090602;28;20178;-60
2021/08/31 11:28:46;;;;;;;2.97;2.67;;;22.10;67.90;;;;;;5091358;28;20177;-61
2021/08/31 11:31:13;;;;;;;3.38;3.08;;;22.10;67.80;;;;;;5090813;28;20174;-61
2021/08/31 11:33:42;;;;;;;5.30;3.10;;;22.20;67.70;;;;;;5091028;28;20188;-61
2021/08/31 11:36:12;;;;;;;3.42;2.88;;;22.20;67.60;;;;;;5090727;28;20228;-62
2021/08/31 11:38:42;;;;;;;3.72;3.22;;;22.10;67.80;;;;;;5089463;28;20192;-62
2021/08/31 11:41:16;;;;;;;4.35;3.17;;;22.00;67.90;;;;;;5090540;28;20170;-61
2021/08/31 11:43:42;;;;;;;3.78;3.30;;;22.10;68.10;;;;;;5088309;28;20202;-63
2021/08/31 11:46:08;;;;;;;3.35;3.05;;;22.20;67.90;;;;;;5091035;28;20211;-60
2021/08/31 11:48:35;;;;;;;4.00;3.47;;;22.20;67.90;;;;;;5091424;28;20220;-61
2021/08/31 11:51:00;;;;;;;3.75;3.00;;;22.30;67.70;;;;;;5090989;28;20174;-59
2021/08/31 11:53:26;;;;;;;3.42;2.90;;;22.30;67.50;;;;;;5092826;28;20635;-59
2021/08/31 11:56:02;;;;;;;5.10;3.47;;;22.20;67.60;;;;;;5095004;28;20166;-59
2021/08/31 11:58:28;;;;;;;3.42;2.85;;;22.20;67.10;;;;;;5094663;28;20283;-59
2021/08/31 12:00:54;;;;;;;4.18;3.20;;;22.20;67.60;;;;;;5094939;28;20184;-60
2021/08/31 12:03:21;;;;;;;3.80;3.15;;;22.20;67.40;;;;;;5095290;28;20213;-60
2021/08/31 12:05:46;;;;;;;5.22;3.60;;;22.20;67.00;;;;;;5095267;28;20174;-60
2021/08/31 12:08:12;;;;;;;4.70;3.42;;;22.20;67.00;;;;;;5092958;28;20188;-59
2021/08/31 12:10:37;;;;;;;5.63;3.40;;;22.20;66.90;;;;;;5093588;28;20197;-59
2021/08/31 12:13:03;;;;;;;4.13;3.10;;;22.20;66.80;;;;;;5093880;28;20171;-60
2021/08/31 12:15:29;;;;;;;3.15;2.67;;;22.30;66.70;;;;;;5093937;28;20216;-60
2021/08/31 12:18:02;;;;;;;4.43;3.17;;;22.40;66.50;;;;;;5093950;28;20177;-59
2021/08/31 12:20:28;;;;;;;4.15;3.15;;;22.40;66.50;;;;;;5093709;28;20274;-60
2021/08/31 12:22:57;;;;;;;3.55;3.25;;;22.50;66.20;;;;;;5094799;28;20295;-60
2021/08/31 12:25:22;;;;;;;4.15;3.03;;;22.50;66.00;;;;;;5093102;28;20659;-59
2021/08/31 12:27:49;;;;;;;4.18;3.33;;;22.40;66.30;;;;;;5094191;28;20182;-60
2021/08/31 12:30:19;;;;;;;5.63;2.88;;;22.40;66.60;;;;;;5094769;28;20170;-60
2021/08/31 12:32:54;;;;;;;3.88;3.40;;;22.30;66.80;;;;;;5094548;28;20632;-60
2021/08/31 12:35:46;;;;;;;2.65;2.45;;;22.30;66.80;;;;;;5093594;28;20185;-60
2021/08/31 12:38:24;;;;;;;3.42;3.00;;;22.40;67.40;;;;;;5094466;28;20548;-60
2021/08/31 12:40:50;;;;;;;3.15;2.85;;;22.50;66.30;;;;;;5094719;28;20257;-60
2021/08/31 12:43:15;;;;;;;3.38;3.08;;;22.50;66.10;;;;;;5093609;28;20688;-60
2021/08/31 12:45:46;;;;;;;3.75;3.17;;;22.60;66.00;;;;;;5094232;28;20174;-60